sensor_id;sensor_type;location;lat;lon;timestamp;P1;durP1;ratioP1;P2;durP2;ratioP2
44358;SDS011;30077;52.474;13.326;2023-05-07T00:01:32;24.60;;;18.50;;
44358;SDS011;30077;52.474;13.326;2023-05-07T00:06:33;29.27;;;18.63;;
44358;SDS011;30077;52.474;13.326;2023-05-07T00:11:34;31.70;;;18.60;;
44358;SDS011;30077;52.474;13.326;2023-05-07T00:16:34;28.98;;;18.85;;
44358;SDS011;30077;52.474;13.326;2023-05-07T00:21:35;23.98;;;17.30;;
44358;SDS011;30077;52.474;13.326;2023-05-07T00:26:35;27.70;;;17.75;;
44358;SDS011;30077;52.474;13.326;2023-05-07T00:31:36;23.88;;;17.23;;
44358;SDS011;30077;52.474;13.326;2023-05-07T00:36:36;25.45;;;17.08;;
44358;SDS011;30077;52.474;13.326;2023-05-07T00:41:37;24.08;;;16.42;;
44358;SDS011;30077;52.474;13.326;2023-05-07T00:46:37;22.00;;;14.57;;
44358;SDS011;30077;52.474;13.326;2023-05-07T00:51:38;21.48;;;15.18;;
44358;SDS011;30077;52.474;13.326;2023-05-07T00:56:39;21.52;;;13.75;;
44358;SDS011;30077;52.474;13.326;2023-05-07T01:01:40;19.63;;;13.40;;
44358;SDS011;30077;52.474;13.326;2023-05-07T01:06:40;21.75;;;15.07;;
44358;SDS011;30077;52.474;13.326;2023-05-07T01:11:41;24.00;;;15.75;;
44358;SDS011;30077;52.474;13.326;2023-05-07T01:16:42;19.02;;;15.73;;
44358;SDS011;30077;52.474;13.326;2023-05-07T01:21:45;23.40;;;16.77;;
44358;SDS011;30077;52.474;13.326;2023-05-07T01:26:48;26.58;;;17.45;;
44358;SDS011;30077;52.474;13.326;2023-05-07T01:31:48;24.15;;;16.33;;
44358;SDS011;30077;52.474;13.326;2023-05-07T01:36:52;25.33;;;15.57;;
44358;SDS011;30077;52.474;13.326;2023-05-07T01:41:55;24.65;;;16.85;;
44358;SDS011;30077;52.474;13.326;2023-05-07T01:46:56;21.73;;;16.40;;
44358;SDS011;30077;52.474;13.326;2023-05-07T01:51:57;23.05;;;16.48;;
44358;SDS011;30077;52.474;13.326;2023-05-07T01:56:58;23.80;;;16.23;;
44358;SDS011;30077;52.474;13.326;2023-05-07T02:01:58;24.00;;;15.55;;
44358;SDS011;30077;52.474;13.326;2023-05-07T02:06:59;20.95;;;15.30;;
44358;SDS011;30077;52.474;13.326;2023-05-07T02:11:59;21.35;;;15.00;;
44358;SDS011;30077;52.474;13.326;2023-05-07T02:17:00;21.10;;;14.55;;
44358;SDS011;30077;52.474;13.326;2023-05-07T02:22:00;20.77;;;15.13;;
44358;SDS011;30077;52.474;13.326;2023-05-07T02:27:01;20.45;;;15.05;;
44358;SDS011;30077;52.474;13.326;2023-05-07T02:32:03;20.90;;;15.10;;
44358;SDS011;30077;52.474;13.326;2023-05-07T02:37:03;23.08;;;16.05;;
44358;SDS011;30077;52.474;13.326;2023-05-07T02:42:05;21.23;;;14.90;;
44358;SDS011;30077;52.474;13.326;2023-05-07T02:47:05;25.65;;;15.45;;
44358;SDS011;30077;52.474;13.326;2023-05-07T02:52:08;22.55;;;16.02;;
44358;SDS011;30077;52.474;13.326;2023-05-07T02:57:08;25.00;;;16.65;;
44358;SDS011;30077;52.474;13.326;2023-05-07T03:02:09;21.35;;;15.63;;
44358;SDS011;30077;52.474;13.326;2023-05-07T03:07:10;23.15;;;15.90;;
44358;SDS011;30077;52.474;13.326;2023-05-07T03:12:10;21.95;;;14.93;;
44358;SDS011;30077;52.474;13.326;2023-05-07T03:17:11;29.00;;;14.68;;
44358;SDS011;30077;52.474;13.326;2023-05-07T03:22:11;19.75;;;13.65;;
44358;SDS011;30077;52.474;13.326;2023-05-07T03:27:12;22.25;;;14.32;;
44358;SDS011;30077;52.474;13.326;2023-05-07T03:32:12;18.55;;;14.02;;
44358;SDS011;30077;52.474;13.326;2023-05-07T03:37:13;20.83;;;13.43;;
44358;SDS011;30077;52.474;13.326;2023-05-07T03:42:14;19.17;;;13.38;;
44358;SDS011;30077;52.474;13.326;2023-05-07T03:47:15;19.33;;;13.85;;
44358;SDS011;30077;52.474;13.326;2023-05-07T03:52:15;19.35;;;13.40;;
44358;SDS011;30077;52.474;13.326;2023-05-07T03:57:16;19.42;;;13.73;;
44358;SDS011;30077;52.474;13.326;2023-05-07T04:02:16;19.58;;;14.00;;
44358;SDS011;30077;52.474;13.326;2023-05-07T04:07:17;20.95;;;14.50;;
44358;SDS011;30077;52.474;13.326;2023-05-07T04:12:17;23.83;;;15.13;;
44358;SDS011;30077;52.474;13.326;2023-05-07T04:17:18;25.35;;;14.57;;
44358;SDS011;30077;52.474;13.326;2023-05-07T04:22:18;21.70;;;14.75;;
44358;SDS011;30077;52.474;13.326;2023-05-07T04:27:18;20.50;;;14.13;;
44358;SDS011;30077;52.474;13.326;2023-05-07T04:32:20;18.92;;;13.07;;
44358;SDS011;30077;52.474;13.326;2023-05-07T04:37:21;19.33;;;13.95;;
44358;SDS011;30077;52.474;13.326;2023-05-07T04:42:21;20.73;;;13.27;;
44358;SDS011;30077;52.474;13.326;2023-05-07T04:47:22;17.55;;;12.90;;
44358;SDS011;30077;52.474;13.326;2023-05-07T04:52:23;17.80;;;12.38;;
44358;SDS011;30077;52.474;13.326;2023-05-07T04:57:23;16.63;;;11.75;;
44358;SDS011;30077;52.474;13.326;2023-05-07T05:02:25;16.88;;;11.20;;
44358;SDS011;30077;52.474;13.326;2023-05-07T05:07:25;15.00;;;11.05;;
44358;SDS011;30077;52.474;13.326;2023-05-07T05:12:26;15.27;;;10.68;;
44358;SDS011;30077;52.474;13.326;2023-05-07T05:17:26;13.32;;;9.98;;
44358;SDS011;30077;52.474;13.326;2023-05-07T05:22:27;14.35;;;10.52;;
44358;SDS011;30077;52.474;13.326;2023-05-07T05:27:29;14.75;;;10.38;;
44358;SDS011;30077;52.474;13.326;2023-05-07T05:32:30;13.38;;;9.35;;
44358;SDS011;30077;52.474;13.326;2023-05-07T05:37:30;14.27;;;8.88;;
44358;SDS011;30077;52.474;13.326;2023-05-07T05:42:33;14.63;;;9.68;;
44358;SDS011;30077;52.474;13.326;2023-05-07T05:47:34;13.98;;;9.35;;
44358;SDS011;30077;52.474;13.326;2023-05-07T05:52:34;12.32;;;9.32;;
44358;SDS011;30077;52.474;13.326;2023-05-07T05:57:35;12.05;;;9.05;;
44358;SDS011;30077;52.474;13.326;2023-05-07T06:02:36;12.57;;;8.95;;
44358;SDS011;30077;52.474;13.326;2023-05-07T06:07:36;16.58;;;9.48;;
44358;SDS011;30077;52.474;13.326;2023-05-07T06:12:37;12.80;;;9.38;;
44358;SDS011;30077;52.474;13.326;2023-05-07T06:17:37;11.82;;;9.43;;
44358;SDS011;30077;52.474;13.326;2023-05-07T06:22:38;14.30;;;9.10;;
44358;SDS011;30077;52.474;13.326;2023-05-07T06:27:38;11.93;;;9.40;;
44358;SDS011;30077;52.474;13.326;2023-05-07T06:32:40;12.98;;;9.75;;
44358;SDS011;30077;52.474;13.326;2023-05-07T06:37:41;11.35;;;8.48;;
44358;SDS011;30077;52.474;13.326;2023-05-07T06:42:45;13.43;;;9.40;;
44358;SDS011;30077;52.474;13.326;2023-05-07T06:47:45;12.68;;;9.20;;
44358;SDS011;30077;52.474;13.326;2023-05-07T06:52:46;14.32;;;9.43;;
44358;SDS011;30077;52.474;13.326;2023-05-07T06:57:46;11.48;;;8.20;;
44358;SDS011;30077;52.474;13.326;2023-05-07T07:02:47;13.82;;;8.73;;
44358;SDS011;30077;52.474;13.326;2023-05-07T07:07:47;13.70;;;9.02;;
44358;SDS011;30077;52.474;13.326;2023-05-07T07:12:52;12.68;;;9.02;;
44358;SDS011;30077;52.474;13.326;2023-05-07T07:17:53;11.57;;;8.43;;
44358;SDS011;30077;52.474;13.326;2023-05-07T07:22:53;9.80;;;7.30;;
44358;SDS011;30077;52.474;13.326;2023-05-07T07:27:54;10.35;;;7.32;;
44358;SDS011;30077;52.474;13.326;2023-05-07T07:32:54;10.30;;;8.23;;
44358;SDS011;30077;52.474;13.326;2023-05-07T07:38:00;9.60;;;7.15;;
44358;SDS011;30077;52.474;13.326;2023-05-07T07:43:01;9.27;;;7.05;;
44358;SDS011;30077;52.474;13.326;2023-05-07T07:48:01;7.63;;;6.53;;
44358;SDS011;30077;52.474;13.326;2023-05-07T07:53:02;10.40;;;7.00;;
44358;SDS011;30077;52.474;13.326;2023-05-07T07:58:02;12.07;;;5.88;;
44358;SDS011;30077;52.474;13.326;2023-05-07T08:03:03;8.43;;;6.20;;
44358;SDS011;30077;52.474;13.326;2023-05-07T08:08:04;8.80;;;6.05;;
44358;SDS011;30077;52.474;13.326;2023-05-07T08:13:05;8.23;;;5.38;;
44358;SDS011;30077;52.474;13.326;2023-05-07T08:18:06;8.65;;;6.43;;
44358;SDS011;30077;52.474;13.326;2023-05-07T08:23:07;7.88;;;6.22;;
44358;SDS011;30077;52.474;13.326;2023-05-07T08:28:07;9.05;;;5.60;;
44358;SDS011;30077;52.474;13.326;2023-05-07T08:33:08;6.13;;;4.90;;
44358;SDS011;30077;52.474;13.326;2023-05-07T08:38:09;7.68;;;5.38;;
44358;SDS011;30077;52.474;13.326;2023-05-07T08:43:13;7.20;;;5.45;;
44358;SDS011;30077;52.474;13.326;2023-05-07T08:48:15;8.68;;;4.72;;
44358;SDS011;30077;52.474;13.326;2023-05-07T08:53:16;5.80;;;5.00;;
44358;SDS011;30077;52.474;13.326;2023-05-07T08:58:17;8.52;;;5.07;;
44358;SDS011;30077;52.474;13.326;2023-05-07T09:03:18;7.00;;;4.68;;
44358;SDS011;30077;52.474;13.326;2023-05-07T09:08:19;7.60;;;5.18;;
44358;SDS011;30077;52.474;13.326;2023-05-07T09:13:27;8.27;;;4.40;;
44358;SDS011;30077;52.474;13.326;2023-05-07T09:18:28;7.63;;;4.90;;
44358;SDS011;30077;52.474;13.326;2023-05-07T09:23:28;6.70;;;4.43;;
44358;SDS011;30077;52.474;13.326;2023-05-07T09:28:29;7.18;;;4.03;;
44358;SDS011;30077;52.474;13.326;2023-05-07T09:33:29;8.10;;;4.10;;
44358;SDS011;30077;52.474;13.326;2023-05-07T09:38:30;6.13;;;4.60;;
44358;SDS011;30077;52.474;13.326;2023-05-07T09:43:33;6.97;;;4.70;;
44358;SDS011;30077;52.474;13.326;2023-05-07T09:53:40;7.40;;;4.57;;
44358;SDS011;30077;52.474;13.326;2023-05-07T09:58:41;6.78;;;4.57;;
44358;SDS011;30077;52.474;13.326;2023-05-07T10:03:43;4.83;;;3.87;;
44358;SDS011;30077;52.474;13.326;2023-05-07T10:08:45;4.03;;;3.60;;
44358;SDS011;30077;52.474;13.326;2023-05-07T10:13:46;8.02;;;3.30;;
44358;SDS011;30077;52.474;13.326;2023-05-07T10:18:48;4.80;;;2.95;;
44358;SDS011;30077;52.474;13.326;2023-05-07T10:23:51;3.55;;;3.22;;
44358;SDS011;30077;52.474;13.326;2023-05-07T10:29:04;4.38;;;2.88;;
44358;SDS011;30077;52.474;13.326;2023-05-07T10:34:11;6.50;;;2.88;;
44358;SDS011;30077;52.474;13.326;2023-05-07T10:39:18;2.83;;;2.53;;
44358;SDS011;30077;52.474;13.326;2023-05-07T10:44:26;4.90;;;2.90;;
44358;SDS011;30077;52.474;13.326;2023-05-07T10:49:28;2.92;;;2.63;;
44358;SDS011;30077;52.474;13.326;2023-05-07T10:54:28;4.20;;;2.72;;
44358;SDS011;30077;52.474;13.326;2023-05-07T10:59:33;3.10;;;2.80;;
44358;SDS011;30077;52.474;13.326;2023-05-07T11:04:34;3.17;;;2.60;;
44358;SDS011;30077;52.474;13.326;2023-05-07T11:14:55;3.53;;;2.50;;
44358;SDS011;30077;52.474;13.326;2023-05-07T11:19:57;3.90;;;2.53;;
44358;SDS011;30077;52.474;13.326;2023-05-07T11:25:01;4.43;;;2.88;;
44358;SDS011;30077;52.474;13.326;2023-05-07T11:30:03;2.83;;;2.63;;
44358;SDS011;30077;52.474;13.326;2023-05-07T11:35:04;4.38;;;2.80;;
44358;SDS011;30077;52.474;13.326;2023-05-07T11:40:05;5.57;;;2.72;;
44358;SDS011;30077;52.474;13.326;2023-05-07T11:45:07;4.40;;;3.30;;
44358;SDS011;30077;52.474;13.326;2023-05-07T11:50:08;3.85;;;3.05;;
44358;SDS011;30077;52.474;13.326;2023-05-07T11:55:10;4.50;;;2.80;;
44358;SDS011;30077;52.474;13.326;2023-05-07T12:00:11;3.38;;;2.15;;
44358;SDS011;30077;52.474;13.326;2023-05-07T12:10:13;4.45;;;2.97;;
44358;SDS011;30077;52.474;13.326;2023-05-07T12:15:17;3.22;;;2.53;;
44358;SDS011;30077;52.474;13.326;2023-05-07T12:20:22;4.30;;;2.67;;
44358;SDS011;30077;52.474;13.326;2023-05-07T12:25:23;2.97;;;2.35;;
44358;SDS011;30077;52.474;13.326;2023-05-07T12:30:23;3.03;;;2.03;;
44358;SDS011;30077;52.474;13.326;2023-05-07T12:35:28;4.47;;;2.28;;
44358;SDS011;30077;52.474;13.326;2023-05-07T12:40:40;4.53;;;2.95;;
44358;SDS011;30077;52.474;13.326;2023-05-07T12:45:41;5.00;;;2.45;;
44358;SDS011;30077;52.474;13.326;2023-05-07T12:50:43;2.60;;;2.30;;
44358;SDS011;30077;52.474;13.326;2023-05-07T12:55:50;3.40;;;2.13;;
44358;SDS011;30077;52.474;13.326;2023-05-07T13:00:52;2.50;;;2.30;;
44358;SDS011;30077;52.474;13.326;2023-05-07T13:05:54;3.85;;;2.50;;
44358;SDS011;30077;52.474;13.326;2023-05-07T13:10:59;3.20;;;2.60;;
44358;SDS011;30077;52.474;13.326;2023-05-07T13:16:04;3.50;;;2.53;;
44358;SDS011;30077;52.474;13.326;2023-05-07T13:21:06;5.75;;;3.15;;
44358;SDS011;30077;52.474;13.326;2023-05-07T13:26:06;5.15;;;2.20;;
44358;SDS011;30077;52.474;13.326;2023-05-07T13:31:06;2.63;;;2.08;;
44358;SDS011;30077;52.474;13.326;2023-05-07T13:36:07;3.67;;;1.88;;
44358;SDS011;30077;52.474;13.326;2023-05-07T13:41:08;4.38;;;1.73;;
44358;SDS011;30077;52.474;13.326;2023-05-07T13:46:08;2.97;;;1.80;;
44358;SDS011;30077;52.474;13.326;2023-05-07T13:51:09;2.15;;;1.80;;
44358;SDS011;30077;52.474;13.326;2023-05-07T13:56:10;2.40;;;2.20;;
44358;SDS011;30077;52.474;13.326;2023-05-07T14:01:10;2.33;;;1.60;;
44358;SDS011;30077;52.474;13.326;2023-05-07T14:06:11;3.83;;;2.10;;
44358;SDS011;30077;52.474;13.326;2023-05-07T14:11:11;2.10;;;1.90;;
44358;SDS011;30077;52.474;13.326;2023-05-07T14:16:12;3.25;;;2.20;;
44358;SDS011;30077;52.474;13.326;2023-05-07T14:21:12;2.38;;;2.13;;
44358;SDS011;30077;52.474;13.326;2023-05-07T14:26:13;2.83;;;2.05;;
44358;SDS011;30077;52.474;13.326;2023-05-07T14:31:14;3.05;;;2.53;;
44358;SDS011;30077;52.474;13.326;2023-05-07T14:36:15;2.80;;;2.00;;
44358;SDS011;30077;52.474;13.326;2023-05-07T14:41:16;2.63;;;2.08;;
44358;SDS011;30077;52.474;13.326;2023-05-07T14:46:17;2.20;;;2.00;;
44358;SDS011;30077;52.474;13.326;2023-05-07T14:51:18;2.33;;;2.05;;
44358;SDS011;30077;52.474;13.326;2023-05-07T14:56:18;3.22;;;2.10;;
44358;SDS011;30077;52.474;13.326;2023-05-07T15:01:20;4.93;;;2.50;;
44358;SDS011;30077;52.474;13.326;2023-05-07T15:06:21;3.30;;;2.03;;
44358;SDS011;30077;52.474;13.326;2023-05-07T15:11:21;2.08;;;1.80;;
44358;SDS011;30077;52.474;13.326;2023-05-07T15:16:22;2.30;;;2.10;;
44358;SDS011;30077;52.474;13.326;2023-05-07T15:21:22;3.70;;;2.47;;
44358;SDS011;30077;52.474;13.326;2023-05-07T15:26:23;2.42;;;1.98;;
44358;SDS011;30077;52.474;13.326;2023-05-07T15:31:24;2.38;;;2.03;;
44358;SDS011;30077;52.474;13.326;2023-05-07T15:36:25;3.13;;;2.30;;
44358;SDS011;30077;52.474;13.326;2023-05-07T15:41:25;8.05;;;5.32;;
44358;SDS011;30077;52.474;13.326;2023-05-07T15:46:25;4.03;;;2.20;;
44358;SDS011;30077;52.474;13.326;2023-05-07T15:51:26;4.00;;;1.98;;
44358;SDS011;30077;52.474;13.326;2023-05-07T15:56:27;2.65;;;1.73;;
44358;SDS011;30077;52.474;13.326;2023-05-07T16:01:28;2.40;;;1.95;;
44358;SDS011;30077;52.474;13.326;2023-05-07T16:06:28;2.63;;;1.73;;
44358;SDS011;30077;52.474;13.326;2023-05-07T16:11:30;2.30;;;2.10;;
44358;SDS011;30077;52.474;13.326;2023-05-07T16:21:33;2.65;;;2.42;;
44358;SDS011;30077;52.474;13.326;2023-05-07T16:26:35;2.50;;;2.30;;
44358;SDS011;30077;52.474;13.326;2023-05-07T16:31:36;3.65;;;2.95;;
44358;SDS011;30077;52.474;13.326;2023-05-07T16:36:37;2.42;;;2.22;;
44358;SDS011;30077;52.474;13.326;2023-05-07T16:41:37;4.95;;;2.25;;
44358;SDS011;30077;52.474;13.326;2023-05-07T16:46:38;2.92;;;2.50;;
44358;SDS011;30077;52.474;13.326;2023-05-07T16:51:38;2.63;;;2.30;;
44358;SDS011;30077;52.474;13.326;2023-05-07T16:56:42;6.70;;;2.05;;
44358;SDS011;30077;52.474;13.326;2023-05-07T17:01:42;3.78;;;2.10;;
44358;SDS011;30077;52.474;13.326;2023-05-07T17:06:43;3.47;;;2.35;;
44358;SDS011;30077;52.474;13.326;2023-05-07T17:11:45;20.85;;;10.80;;
44358;SDS011;30077;52.474;13.326;2023-05-07T17:16:45;5.00;;;3.67;;
44358;SDS011;30077;52.474;13.326;2023-05-07T17:21:46;3.22;;;2.33;;
44358;SDS011;30077;52.474;13.326;2023-05-07T17:26:46;2.78;;;2.15;;
44358;SDS011;30077;52.474;13.326;2023-05-07T17:31:47;3.85;;;2.28;;
44358;SDS011;30077;52.474;13.326;2023-05-07T17:36:47;2.67;;;2.30;;
44358;SDS011;30077;52.474;13.326;2023-05-07T17:41:48;4.63;;;2.28;;
44358;SDS011;30077;52.474;13.326;2023-05-07T17:46:48;4.32;;;2.75;;
44358;SDS011;30077;52.474;13.326;2023-05-07T17:51:49;4.00;;;2.30;;
44358;SDS011;30077;52.474;13.326;2023-05-07T17:56:50;4.20;;;2.60;;
44358;SDS011;30077;52.474;13.326;2023-05-07T18:01:50;4.47;;;2.78;;
44358;SDS011;30077;52.474;13.326;2023-05-07T18:06:51;4.03;;;2.65;;
44358;SDS011;30077;52.474;13.326;2023-05-07T18:11:52;7.00;;;4.63;;
44358;SDS011;30077;52.474;13.326;2023-05-07T18:16:52;9.05;;;4.43;;
44358;SDS011;30077;52.474;13.326;2023-05-07T18:21:53;3.08;;;2.22;;
44358;SDS011;30077;52.474;13.326;2023-05-07T18:26:56;3.33;;;3.00;;
44358;SDS011;30077;52.474;13.326;2023-05-07T18:31:56;3.53;;;2.63;;
44358;SDS011;30077;52.474;13.326;2023-05-07T18:36:57;5.63;;;2.47;;
44358;SDS011;30077;52.474;13.326;2023-05-07T18:41:57;3.38;;;2.45;;
44358;SDS011;30077;52.474;13.326;2023-05-07T18:46:58;5.78;;;3.22;;
44358;SDS011;30077;52.474;13.326;2023-05-07T18:51:59;3.08;;;2.67;;
44358;SDS011;30077;52.474;13.326;2023-05-07T18:57:00;3.95;;;3.05;;
44358;SDS011;30077;52.474;13.326;2023-05-07T19:02:00;3.33;;;2.50;;
44358;SDS011;30077;52.474;13.326;2023-05-07T19:07:01;20.20;;;10.73;;
44358;SDS011;30077;52.474;13.326;2023-05-07T19:12:01;7.25;;;4.20;;
44358;SDS011;30077;52.474;13.326;2023-05-07T19:17:02;4.57;;;3.42;;
44358;SDS011;30077;52.474;13.326;2023-05-07T19:22:02;4.70;;;3.20;;
44358;SDS011;30077;52.474;13.326;2023-05-07T19:27:03;5.40;;;2.72;;
44358;SDS011;30077;52.474;13.326;2023-05-07T19:32:04;40.08;;;18.13;;
44358;SDS011;30077;52.474;13.326;2023-05-07T19:37:05;5.90;;;3.75;;
44358;SDS011;30077;52.474;13.326;2023-05-07T19:42:05;19.88;;;8.88;;
44358;SDS011;30077;52.474;13.326;2023-05-07T19:47:06;15.75;;;7.63;;
44358;SDS011;30077;52.474;13.326;2023-05-07T19:52:08;6.10;;;4.35;;
44358;SDS011;30077;52.474;13.326;2023-05-07T19:57:08;5.60;;;3.90;;
44358;SDS011;30077;52.474;13.326;2023-05-07T20:02:09;18.77;;;10.02;;
44358;SDS011;30077;52.474;13.326;2023-05-07T20:07:11;4.78;;;3.53;;
44358;SDS011;30077;52.474;13.326;2023-05-07T20:12:11;8.13;;;3.92;;
44358;SDS011;30077;52.474;13.326;2023-05-07T20:17:12;4.07;;;3.47;;
44358;SDS011;30077;52.474;13.326;2023-05-07T20:22:12;51.38;;;27.48;;
44358;SDS011;30077;52.474;13.326;2023-05-07T20:27:13;26.98;;;14.40;;
44358;SDS011;30077;52.474;13.326;2023-05-07T20:32:15;12.63;;;5.10;;
44358;SDS011;30077;52.474;13.326;2023-05-07T20:37:16;10.55;;;7.60;;
44358;SDS011;30077;52.474;13.326;2023-05-07T20:42:16;5.55;;;4.85;;
44358;SDS011;30077;52.474;13.326;2023-05-07T20:47:17;11.40;;;7.53;;
44358;SDS011;30077;52.474;13.326;2023-05-07T20:52:18;5.97;;;4.55;;
44358;SDS011;30077;52.474;13.326;2023-05-07T20:57:20;7.07;;;5.20;;
44358;SDS011;30077;52.474;13.326;2023-05-07T21:02:21;5.38;;;4.88;;
44358;SDS011;30077;52.474;13.326;2023-05-07T21:07:22;4.80;;;4.30;;
44358;SDS011;30077;52.474;13.326;2023-05-07T21:12:22;6.68;;;4.70;;
44358;SDS011;30077;52.474;13.326;2023-05-07T21:17:22;4.78;;;4.35;;
44358;SDS011;30077;52.474;13.326;2023-05-07T21:22:23;10.02;;;5.63;;
44358;SDS011;30077;52.474;13.326;2023-05-07T21:27:24;5.60;;;5.03;;
44358;SDS011;30077;52.474;13.326;2023-05-07T21:32:24;22.17;;;14.68;;
44358;SDS011;30077;52.474;13.326;2023-05-07T21:37:25;7.35;;;5.20;;
44358;SDS011;30077;52.474;13.326;2023-05-07T21:42:25;11.75;;;6.00;;
44358;SDS011;30077;52.474;13.326;2023-05-07T21:47:26;7.78;;;5.95;;
44358;SDS011;30077;52.474;13.326;2023-05-07T21:52:26;6.90;;;5.75;;
44358;SDS011;30077;52.474;13.326;2023-05-07T21:57:27;6.57;;;5.47;;
44358;SDS011;30077;52.474;13.326;2023-05-07T22:02:27;8.05;;;5.80;;
44358;SDS011;30077;52.474;13.326;2023-05-07T22:07:28;13.15;;;8.73;;
44358;SDS011;30077;52.474;13.326;2023-05-07T22:12:28;7.97;;;6.28;;
44358;SDS011;30077;52.474;13.326;2023-05-07T22:17:29;7.93;;;6.18;;
44358;SDS011;30077;52.474;13.326;2023-05-07T22:22:29;7.43;;;5.70;;
44358;SDS011;30077;52.474;13.326;2023-05-07T22:27:30;8.98;;;5.88;;
44358;SDS011;30077;52.474;13.326;2023-05-07T22:32:31;10.40;;;5.93;;
44358;SDS011;30077;52.474;13.326;2023-05-07T22:37:31;10.57;;;5.88;;
44358;SDS011;30077;52.474;13.326;2023-05-07T22:42:32;6.05;;;5.30;;
44358;SDS011;30077;52.474;13.326;2023-05-07T22:47:32;6.57;;;5.97;;
44358;SDS011;30077;52.474;13.326;2023-05-07T22:52:33;9.50;;;5.82;;
44358;SDS011;30077;52.474;13.326;2023-05-07T22:57:34;7.45;;;6.22;;
44358;SDS011;30077;52.474;13.326;2023-05-07T23:02:34;8.48;;;7.13;;
44358;SDS011;30077;52.474;13.326;2023-05-07T23:07:35;8.98;;;6.95;;
44358;SDS011;30077;52.474;13.326;2023-05-07T23:12:35;10.32;;;7.32;;
44358;SDS011;30077;52.474;13.326;2023-05-07T23:17:36;8.80;;;7.45;;
44358;SDS011;30077;52.474;13.326;2023-05-07T23:22:36;10.45;;;7.57;;
44358;SDS011;30077;52.474;13.326;2023-05-07T23:27:37;10.80;;;7.65;;
44358;SDS011;30077;52.474;13.326;2023-05-07T23:32:37;8.27;;;7.20;;
44358;SDS011;30077;52.474;13.326;2023-05-07T23:37:38;8.75;;;7.50;;
44358;SDS011;30077;52.474;13.326;2023-05-07T23:42:38;9.30;;;7.38;;
44358;SDS011;30077;52.474;13.326;2023-05-07T23:47:39;8.80;;;7.00;;
44358;SDS011;30077;52.474;13.326;2023-05-07T23:52:41;10.45;;;7.10;;
44358;SDS011;30077;52.474;13.326;2023-05-07T23:57:41;9.60;;;7.65;;
